Latest Weather Observations for Warwick

IDQ60801

Issued at 2:32 pm EST Saturday 21 October 2017 (issued every 30 minutes, with the page automatically refreshed every 10 minutes)

About weather observations | Map of weather stations | Latest weather observations for QLD | Other Formats
Station Details ID: 041525 Name: WARWICK Lat: -28.21 Lon: 152.10 Height: 475.4 m
Data from the previous 72 hours. | See also: Recent months at Warwick
Date/Time
EST
Temp
°C
App
Temp
°C
Dew
Point
°C
Rel
Hum
%
Delta-T
°C
Wind Press
QNH
hPa
Press
MSL
hPa
Rain since
9am
mm
Dir  Spd
km/h
Gust
km/h
Spd
kts
Gust
kts
21/02:30pm 13.3 11.6 12.4 94 0.5 SE 13 20 7 11 1014.9 1013.4 4.6
21/02:00pm 13.5 11.3 12.2 92 0.7 SE 15 24 8 13 1015.6 1014.1 3.6
21/01:30pm 13.8 11.0 12.5 92 0.7 SSE 19 28 10 15 1016.2 1014.7 3.0
21/01:00pm 14.1 11.8 13.0 93 0.6 SSE 17 26 9 14 1016.4 1014.9 2.2
21/12:30pm 14.1 12.2 13.0 93 0.6 SE 15 22 8 12 1016.2 1014.7 1.2
21/12:00pm 14.1 12.6 13.0 93 0.6 SE 13 24 7 13 1016.6 1015.1 1.0
21/11:30am 14.2 11.4 12.6 90 0.9 SE 19 30 10 16 1016.6 1015.1 0.4
21/11:00am 14.5 11.5 12.5 88 1.1 SE 20 33 11 18 1017.0 1015.5 0.4
21/10:30am 14.8 11.5 12.8 88 1.1 SE 22 35 12 19 1017.0 1015.5 0.4
21/10:00am 14.8 12.2 13.2 90 0.9 SE 19 32 10 17 1017.4 1015.9 0.2
21/09:30am 14.7 11.9 13.3 91 0.8 SSE 20 32 11 17 1017.4 1015.9 0.0
21/09:00am 15.3 13.3 13.9 91 0.8 SE 17 26 9 14 1017.3 1015.7 4.8
21/08:30am 15.3 13.2 13.7 90 0.9 SE 17 30 9 16 1017.1 1015.6 4.8
21/08:00am 15.0 14.2 14.1 94 0.5 SE 11 22 6 12 1017.3 1015.7 4.8
21/07:30am 15.0 13.1 14.1 94 0.5 SSE 17 28 9 15 1017.3 1015.7 4.0
21/07:00am 15.3 13.2 14.6 96 0.4 SSW 19 30 10 16 1016.7 1015.2 3.8
21/06:30am 16.5 15.9 15.7 95 0.5 E 13 19 7 10 1014.9 1013.4 3.6
21/06:00am 16.5 16.4 16.0 97 0.3 E 11 15 6 8 1015.3 1013.7 3.0
21/05:30am 16.7 18.7 15.9 95 0.5 CALM 0 4 0 2 1015.8 1014.3 2.2
21/05:00am 16.6 18.6 15.9 96 0.4 CALM 0 6 0 3 1015.7 1014.2 1.4
21/04:30am 16.7 17.4 16.0 96 0.4 NE 7 11 4 6 1015.2 1013.6 0.6
21/04:00am 16.8 17.0 15.8 94 0.6 NNE 9 9 5 5 1015.3 1013.7 0.2
21/03:30am 17.0 19.0 16.0 94 0.6 CALM 0 0 0 0 1015.4 1013.8 0.0
21/03:00am 17.0 18.9 15.8 93 0.7 CALM 0 0 0 0 1015.6 1014.1 0.0
21/02:30am 17.2 18.9 15.2 88 1.2 CALM 0 0 0 0 1015.3 1013.7 0.0
21/02:00am 17.6 19.1 14.7 83 1.7 CALM 0 0 0 0 1015.6 1014.1 0.0
21/01:30am 17.6 19.3 15.1 85 1.5 CALM 0 0 0 0 1016.2 1014.7 0.0
21/01:00am 17.9 18.5 15.2 84 1.6 WSW 6 11 3 6 1016.6 1015.1 0.0
21/12:30am 18.3 18.6 14.9 80 2.0 SW 7 11 4 6 1017.1 1015.6 0.0
21/12:00am 18.7 18.4 14.5 76 2.5 WSW 9 13 5 7 1017.7 1016.2 0.0
 
Date/Time
EST
Temp
°C
App
Temp
°C
Dew
Point
°C
Rel
Hum
%
Delta-T
°C
Wind Press
QNH
hPa
Press
MSL
hPa
Rain since
9am
mm
Dir  Spd
km/h
Gust
km/h
Spd
kts
Gust
kts
20/11:30pm 18.8 20.3 14.6 76 2.5 CALM 0 6 0 3 1017.7 1016.2 0.0
20/11:00pm 18.9 18.5 14.1 73 2.8 SSW 9 15 5 8 1017.9 1016.4 0.0
20/10:30pm 18.9 20.3 14.5 75 2.6 CALM 0 0 0 0 1017.7 1016.2 0.0
20/10:00pm 19.0 20.2 13.9 72 3.0 CALM 0 0 0 0 1017.7 1016.2 0.0
20/09:30pm 18.7 19.9 13.7 72 2.9 CALM 0 0 0 0 1017.7 1016.2 0.0
20/09:00pm 19.6 20.4 12.6 64 4.0 CALM 0 0 0 0 1017.7 1016.2 0.0
20/08:30pm 19.6 20.5 12.8 65 3.9 CALM 0 7 0 4 1017.7 1016.2 0.0
20/08:00pm 19.6 19.7 12.6 64 4.0 NE 4 11 2 6 1017.8 1016.3 0.0
20/07:30pm 20.0 19.4 11.7 59 4.7 NW 6 7 3 4 1017.9 1016.4 0.0
20/07:00pm 19.7 19.0 11.5 59 4.6 WNW 6 6 3 3 1017.7 1016.2 0.0
20/06:30pm 20.0 19.4 11.7 59 4.7 NW 6 7 3 4 1017.5 1016.0 0.0
20/06:00pm 21.6 21.1 12.2 55 5.4 WNW 6 7 3 4 1017.4 1015.9 0.0
20/05:30pm 23.5 22.3 11.5 47 6.9 WNW 9 11 5 6 1017.1 1015.6 0.0
20/05:00pm 24.2 22.9 11.3 44 7.4 W 9 15 5 8 1017.3 1015.7 0.0
20/04:30pm 24.4 21.9 11.1 43 7.6 WSW 15 24 8 13 1017.3 1015.7 0.0
20/04:00pm 24.4 22.8 11.6 44 7.4 WNW 11 19 6 10 1017.3 1015.7 0.0
20/03:30pm 24.4 22.0 11.3 43 7.5 W 15 24 8 13 1017.5 1016.0 0.0
20/03:00pm 24.3 22.3 11.4 44 7.4 WSW 13 20 7 11 1017.7 1016.2 0.0
20/02:30pm 25.4 23.7 11.1 40 8.2 WNW 11 20 6 11 1018.0 1016.5 0.0
20/02:00pm 25.5 23.4 11.3 41 8.2 NW 13 22 7 12 1018.5 1017.0 0.0
20/01:30pm 24.6 22.1 10.9 42 7.8 W 15 26 8 14 1019.0 1017.5 0.0
20/01:00pm 25.8 23.8 11.5 40 8.3 W 13 24 7 13 1019.5 1018.0 0.0
20/12:30pm 24.3 22.3 11.4 44 7.4 WSW 13 24 7 13 1020.0 1018.5 0.0
20/12:00pm 24.1 22.3 10.9 43 7.5 NW 11 20 6 11 1020.5 1019.0 0.0
20/11:30am 23.6 21.6 11.6 47 6.9 WNW 13 22 7 12 1020.9 1019.4 0.0
20/11:00am 23.1 20.9 10.9 46 6.9 NW 13 22 7 12 1021.2 1019.8 0.0
20/10:30am 22.9 20.6 11.7 49 6.4 WNW 15 20 8 11 1021.7 1020.2 0.0
20/10:00am 22.6 21.1 11.8 50 6.2 NNE 11 17 6 9 1022.0 1020.5 0.0
20/09:30am 20.8 18.9 11.8 56 5.1 NNW 13 20 7 11 1022.4 1020.9 0.0
20/09:00am 20.6 19.7 12.6 60 4.6 N 9 20 5 11 1022.6 1021.1 0.0
20/08:30am 19.6 19.4 13.0 65 3.8 SSW 6 11 3 6 1022.8 1021.3 0.0
20/08:00am 18.0 18.2 12.9 72 2.9 ESE 4 9 2 5 1022.8 1021.3 0.0
20/07:30am 17.1 16.4 13.1 77 2.3 SW 9 13 5 7 1022.6 1021.1 0.0
20/07:00am 15.3 15.9 13.0 86 1.3 SW 2 7 1 4 1022.4 1020.9 0.0
20/06:30am 14.2 15.0 12.6 90 0.9 CALM 0 0 0 0 1022.3 1020.8 0.0
20/06:00am 13.2 13.9 12.1 93 0.6 CALM 0 0 0 0 1022.3 1020.8 0.0
20/05:30am 11.9 12.3 11.3 96 0.3 CALM 0 0 0 0 1022.4 1020.9 0.0
20/05:00am 11.5 11.8 10.9 96 0.3 CALM 0 0 0 0 1022.0 1020.5 0.0
20/04:30am 12.2 12.6 11.3 94 0.5 CALM 0 0 0 0 1021.9 1020.4 0.0
20/04:00am 12.0 12.4 11.1 94 0.5 CALM 0 0 0 0 1021.7 1020.2 0.0
20/03:30am 12.6 13.0 11.3 92 0.7 CALM 0 0 0 0 1021.7 1020.2 0.0
20/03:00am 14.0 14.5 11.6 85 1.3 CALM 0 0 0 0 1021.9 1020.4 0.0
20/02:30am 13.5 14.1 12.0 91 0.8 CALM 0 0 0 0 1022.2 1020.7 0.0
20/02:00am 14.5 14.9 12.5 88 1.1 ENE 2 7 1 4 1022.5 1021.0 0.0
20/01:30am 16.2 17.3 13.4 83 1.6 CALM 0 0 0 0 1022.9 1021.5 0.0
20/01:00am 16.4 17.4 13.2 81 1.8 CALM 0 0 0 0 1023.3 1021.9 0.0
20/12:30am 16.5 17.5 13.2 81 1.9 CALM 0 0 0 0 1023.8 1022.4 0.0
20/12:00am 16.5 16.4 13.2 81 1.9 NE 6 6 3 3 1024.2 1022.7 0.0
 
Date/Time
EST
Temp
°C
App
Temp
°C
Dew
Point
°C
Rel
Hum
%
Delta-T
°C
Wind Press
QNH
hPa
Press
MSL
hPa
Rain since
9am
mm
Dir  Spd
km/h
Gust
km/h
Spd
kts
Gust
kts
19/11:30pm 16.8 15.6 12.7 77 2.3 NE 11 13 6 7 1024.5 1023.0 0.0
19/11:00pm 16.6 13.5 12.3 76 2.4 NE 20 28 11 15 1024.7 1023.3 0.0
19/10:30pm 16.4 13.6 12.5 78 2.2 NNE 19 22 10 12 1024.7 1023.3 0.0
19/10:00pm 16.4 13.6 12.5 78 2.2 NE 19 24 10 13 1024.9 1023.5 0.0
19/09:30pm 16.5 14.1 12.6 78 2.2 NE 17 20 9 11 1024.9 1023.5 0.0
19/09:00pm 16.5 15.4 13.0 80 2.0 NE 11 15 6 8 1025.0 1023.6 0.0
19/08:30pm 16.6 15.1 13.1 80 2.0 NE 13 19 7 10 1025.0 1023.6 0.0
19/08:00pm 17.0 15.1 13.0 77 2.3 NE 15 19 8 10 1024.8 1023.4 0.0
19/07:30pm 17.3 15.7 12.7 74 2.6 NE 13 17 7 9 1024.6 1023.1 0.0
19/07:00pm 18.2 15.4 12.6 70 3.2 NE 19 24 10 13 1024.4 1022.9 0.0
19/06:30pm 18.5 16.0 12.3 67 3.5 NE 17 19 9 10 1024.2 1022.7 0.0
19/06:00pm 19.5 16.4 12.1 62 4.2 NE 20 26 11 14 1023.6 1022.2 0.0
19/05:30pm 20.8 17.1 12.6 59 4.7 NE 24 30 13 16 1023.2 1021.8 0.0
19/05:00pm 21.6 18.0 11.8 53 5.6 NE 22 30 12 16 1023.0 1021.6 0.0
19/04:30pm 22.3 18.7 11.8 51 6.0 NE 22 30 12 16 1022.9 1021.5 0.0
19/04:00pm 22.1 18.8 12.8 55 5.4 ENE 22 32 12 17 1022.9 1021.5 0.0
19/03:30pm 23.6 21.1 12.2 48 6.6 ENE 17 28 9 15 1022.8 1021.3 0.0
19/03:00pm 23.0 19.9 11.6 48 6.5 ENE 19 24 10 13 1023.0 1021.6 0.0
19/02:30pm 23.5 21.2 11.6 47 6.8 ENE 15 20 8 11 1023.2 1021.8 0.0
19/02:00pm 23.7 21.0 11.7 47 6.9 ENE 17 24 9 13 1023.5 1022.1 0.0
19/01:30pm 23.2 20.0 11.9 49 6.5 ENE 20 26 11 14 1024.2 1022.7 0.0
19/01:00pm 22.8 19.4 11.4 48 6.5 NE 20 33 11 18 1024.4 1022.9 0.0
19/12:30pm 24.3 21.5 11.4 44 7.4 ENE 17 28 9 15 1024.7 1023.3 0.0
19/12:00pm 23.4 21.1 11.9 48 6.6 ENE 15 24 8 13 1024.9 1023.5 0.0
19/11:30am 22.0 19.7 11.8 52 5.8 ENE 15 24 8 13 1025.2 1023.8 0.0
19/11:00am 21.6 19.3 11.8 53 5.6 ENE 15 26 8 14 1025.5 1024.1 0.0
19/10:30am 21.1 17.7 11.1 52 5.6 ENE 20 28 11 15 1025.7 1024.3 0.0
19/10:00am 20.1 17.0 11.6 58 4.8 E 19 32 10 17 1026.0 1024.6 0.0
19/09:30am 20.0 16.4 11.7 59 4.7 ENE 22 32 12 17 1026.2 1024.7 0.0
19/09:00am 19.4 15.3 11.3 59 4.5 ENE 24 35 13 19 1026.4 1024.9 0.0
19/08:30am 19.6 17.7 11.8 60 4.4 E 13 24 7 13 1026.5 1025.0 0.0
19/08:00am 19.3 17.5 12.2 63 4.0 SE 13 20 7 11 1026.4 1024.9 0.0
19/07:30am 16.9 15.4 13.0 78 2.2 SE 13 26 7 14 1026.5 1025.0 0.0
19/07:00am 16.8 15.6 12.9 78 2.2 SE 11 19 6 10 1026.3 1024.8 0.0
19/06:30am 16.0 14.8 12.8 81 1.8 SE 11 19 6 10 1026.2 1024.7 0.0
19/06:00am 15.6 15.1 12.6 82 1.7 SE 7 13 4 7 1025.9 1024.5 0.0
19/05:30am 14.9 15.0 12.8 87 1.2 ESE 4 9 2 5 1025.7 1024.3 0.0
19/05:00am 14.4 14.1 12.6 89 1.0 ESE 6 9 3 5 1025.4 1024.0 0.0
19/04:30am 14.8 13.9 12.7 87 1.2 ESE 9 15 5 8 1025.3 1023.9 0.0
19/04:00am 15.0 14.1 12.7 86 1.3 SE 9 17 5 9 1025.3 1023.9 0.0
19/03:30am 15.0 13.0 12.7 86 1.3 SE 15 22 8 12 1025.0 1023.6 0.0
19/03:00am 15.1 12.7 12.6 85 1.4 SE 17 26 9 14 1024.9 1023.5 0.0
19/02:30am 15.5 13.1 12.6 83 1.6 SE 17 28 9 15 1024.8 1023.4 0.0
19/02:00am 15.6 13.2 12.6 82 1.7 SE 17 24 9 13 1025.0 1023.6 0.0
19/01:30am 16.0 13.5 12.4 79 2.0 SE 17 24 9 13 1025.3 1023.9 0.0
19/01:00am 16.1 13.7 12.5 79 2.0 SE 17 24 9 13 1025.6 1024.2 0.0
19/12:30am 16.0 13.6 12.8 81 1.8 SE 17 24 9 13 1025.7 1024.3 0.0
19/12:00am 16.1 13.3 12.7 80 1.9 SE 19 30 10 16 1026.3 1024.8 0.0
 
Date/Time
EST
Temp
°C
App
Temp
°C
Dew
Point
°C
Rel
Hum
%
Delta-T
°C
Wind Press
QNH
hPa
Press
MSL
hPa
Rain since
9am
mm
Dir  Spd
km/h
Gust
km/h
Spd
kts
Gust
kts
18/11:30pm 16.1 13.4 12.9 81 1.8 SE 19 30 10 16 1026.5 1025.0 0.0
18/11:00pm 16.2 13.3 12.8 80 1.9 SE 20 28 11 15 1026.8 1025.4 0.0
18/10:30pm 16.2 13.5 12.8 80 1.9 SE 19 30 10 16 1026.8 1025.4 0.0
18/10:00pm 16.0 13.8 13.4 84 1.5 SE 17 26 9 14 1026.7 1025.3 0.0
18/09:30pm 15.8 13.0 13.3 85 1.4 SE 20 30 11 16 1026.7 1025.3 0.0
18/09:00pm 16.2 13.7 13.4 83 1.6 SE 19 26 10 14 1026.7 1025.3 0.0
18/08:30pm 16.6 14.0 13.1 80 2.0 SE 19 26 10 14 1026.5 1025.0 0.0
18/08:00pm 16.6 14.4 13.3 81 1.9 SE 17 28 9 15 1026.3 1024.8 0.0
18/07:30pm 16.8 14.5 13.1 79 2.1 SE 17 26 9 14 1025.8 1024.4 0.0
18/07:00pm 16.9 14.2 13.0 78 2.2 SE 19 30 10 16 1025.3 1023.9 0.0
18/06:30pm 17.3 14.5 13.3 77 2.3 SE 20 32 11 17 1024.8 1023.4 0.0
18/06:00pm 18.1 15.0 13.4 74 2.7 SE 22 33 12 18 1024.6 1023.1 0.0
18/05:30pm 18.6 14.7 13.2 71 3.1 SE 26 37 14 20 1024.2 1022.7 0.0
18/05:00pm 19.4 15.6 13.6 69 3.4 SE 26 43 14 23 1023.7 1022.3 0.0
18/04:30pm 20.1 17.3 14.4 69 3.4 SE 22 41 12 22 1023.5 1022.1 0.0
18/04:00pm 22.3 20.0 12.9 55 5.5 ESE 17 30 9 16 1023.3 1021.9 0.0
18/03:30pm 22.1 19.8 13.0 56 5.3 ESE 17 26 9 14 1023.3 1021.9 0.0
18/03:00pm 21.8 19.6 13.4 59 4.9 ESE 17 28 9 15 1023.5 1022.1 0.0

Other Formats:

Comma delimited format used in spreadsheet applications
http://www.bom.gov.au/fwo/IDQ60801/IDQ60801.94555.axf

JavaScript Object Notation format (JSON) in row-major order
http://www.bom.gov.au/fwo/IDQ60801/IDQ60801.94555.json